Time;durP1;ratioP1;P1;durP2;ratioP2;P2;SDS_P1;SDS_P2;PMS_P1;PMS_P2;Temp;Humidity;BMP_temperature;BMP_pressure;BME280_temperature;BME280_humidity;BME280_pressure;Samples;Min_cycle;Max_cycle;Signal;HPM_P1;HPM_P2
2022/09/01 00:01:29;;;;;;;2.57;1.80;;;;;;;15.45;64.69;101928.31;5060370;28;20032;-87
2022/09/01 00:04:01;;;;;;;2.50;1.80;;;;;;;15.43;64.98;101929.59;5061449;28;20476;-86
2022/09/01 00:06:28;;;;;;;2.60;1.60;;;;;;;15.36;65.33;101930.44;5062040;28;20691;-86
2022/09/01 00:09:04;;;;;;;2.60;2.00;;;;;;;15.40;65.65;101932.75;5061807;28;20027;-86
2022/09/01 00:11:31;;;;;;;2.80;1.60;;;;;;;15.36;65.89;101929.63;5061064;28;20028;-86
2022/09/01 00:13:57;;;;;;;3.00;1.90;;;;;;;15.31;66.52;101930.28;5061066;28;20833;-88
2022/09/01 00:16:23;;;;;;;4.20;2.00;;;;;;;15.30;66.56;101923.13;5061537;28;20326;-87
2022/09/01 00:18:51;;;;;;;2.50;1.73;;;;;;;15.32;66.68;101931.09;5061535;28;20056;-86
2022/09/01 00:21:20;;;;;;;3.27;1.80;;;;;;;15.27;66.85;101922.72;5061446;28;20067;-85
2022/09/01 00:23:46;;;;;;;4.20;2.10;;;;;;;15.27;67.27;101923.56;5060910;28;20042;-86
2022/09/01 00:26:18;;;;;;;2.80;1.90;;;;;;;15.18;67.85;101928.44;5060889;28;20806;-87
2022/09/01 00:28:46;;;;;;;3.20;1.97;;;;;;;15.15;67.91;101919.81;5061280;28;20040;-86
2022/09/01 00:31:13;;;;;;;3.27;2.00;;;;;;;15.10;68.70;101922.38;5060475;28;20036;-86
2022/09/01 00:33:39;;;;;;;2.13;1.77;;;;;;;15.09;68.90;101926.16;5042861;28;20119;-85
2022/09/01 00:36:05;;;;;;;4.33;2.37;;;;;;;15.18;68.56;101924.88;5061488;28;20041;-85
2022/09/01 00:38:32;;;;;;;5.57;2.13;;;;;;;15.05;69.15;101923.00;5061394;28;20636;-86
2022/09/01 00:40:59;;;;;;;3.77;2.03;;;;;;;15.01;69.30;101925.34;5044257;28;20123;-86
2022/09/01 00:43:36;;;;;;;5.43;2.00;;;;;;;14.96;69.61;101927.03;5029497;28;20037;-86
2022/09/01 00:46:06;;;;;;;5.47;2.00;;;;;;;14.89;70.10;101923.50;5061931;28;20028;-86
2022/09/01 00:48:32;;;;;;;4.77;2.00;;;;;;;14.79;70.69;101918.50;5061391;28;20055;-85
2022/09/01 00:50:59;;;;;;;2.60;2.00;;;;;;;14.80;70.86;101914.72;5043255;28;20032;-86
2022/09/01 00:53:25;;;;;;;4.20;2.20;;;;;;;14.76;70.95;101921.66;5061382;28;20051;-85
2022/09/01 00:55:50;;;;;;;4.83;2.20;;;;;;;14.71;70.98;101913.25;5012274;28;21976;-87
2022/09/01 00:58:15;;;;;;;3.83;1.83;;;;;;;14.66;71.72;101906.56;5063267;28;20036;-86
2022/09/01 01:00:41;;;;;;;4.33;2.37;;;;;;;14.58;71.89;101914.94;5065499;28;20557;-86
2022/09/01 01:03:10;;;;;;;4.17;2.00;;;;;;;14.58;72.16;101923.13;5065291;28;20033;-86
2022/09/01 01:05:39;;;;;;;5.70;2.50;;;;;;;14.48;72.60;101909.06;5050226;28;21142;-86
2022/09/01 01:08:07;;;;;;;5.13;2.50;;;;;;;14.45;72.99;101913.06;5065061;28;20633;-86
2022/09/01 01:10:37;;;;;;;4.00;2.13;;;;;;;14.51;72.86;101909.50;5064789;28;20411;-86
2022/09/01 01:13:08;;;;;;;4.73;2.33;;;;;;;14.43;73.89;101908.84;5065393;28;20040;-86
2022/09/01 01:15:33;;;;;;;4.57;2.23;;;;;;;14.38;73.52;101903.22;5064476;28;20997;-85
2022/09/01 01:17:58;;;;;;;6.03;2.27;;;;;;;14.43;73.36;101914.31;5064625;28;20035;-86
2022/09/01 01:23:43;;;;;;;5.53;2.70;;;;;;;14.27;74.07;101902.78;5063919;28;20121;-87
2022/09/01 01:26:09;;;;;;;3.20;2.27;;;;;;;14.37;74.05;101905.09;5064586;28;20082;-86
2022/09/01 01:28:39;;;;;;;2.67;2.30;;;;;;;14.40;74.09;101909.28;5065470;28;20032;-86
2022/09/01 01:31:13;;;;;;;4.67;2.40;;;;;;;14.33;74.01;101907.41;5063994;28;20576;-87
2022/09/01 01:33:45;;;;;;;5.67;2.30;;;;;;;14.18;75.07;101904.06;5064210;28;20184;-86
2022/09/01 01:36:15;;;;;;;2.93;2.30;;;;;;;14.28;75.35;101907.22;5064630;28;20046;-86
2022/09/01 01:38:43;;;;;;;5.00;2.40;;;;;;;14.27;74.97;101908.25;5063828;28;20029;-86
2022/09/01 01:41:10;;;;;;;3.73;2.50;;;;;;;14.32;74.86;101913.06;5062085;28;20040;-87
2022/09/01 01:43:36;;;;;;;4.40;2.23;;;;;;;14.27;75.76;101913.69;5064414;28;20058;-86
2022/09/01 01:46:04;;;;;;;3.20;2.33;;;;;;;14.23;75.71;101907.00;5063785;28;20792;-88
2022/09/01 01:48:33;;;;;;;3.50;2.40;;;;;;;14.20;75.81;101912.88;5064189;28;20539;-87
2022/09/01 01:51:00;;;;;;;3.80;2.20;;;;;;;14.21;76.54;101909.09;5064236;28;20889;-87
2022/09/01 01:53:27;;;;;;;5.47;2.70;;;;;;;14.13;76.37;101912.88;5062159;28;20118;-87
2022/09/01 01:55:54;;;;;;;3.83;2.53;;;;;;;14.24;75.78;101914.13;5063625;28;20036;-86
2022/09/01 01:58:21;;;;;;;2.57;2.37;;;;;;;14.24;75.90;101916.84;5063944;28;20392;-86
2022/09/01 02:00:49;;;;;;;3.87;2.40;;;;;;;14.20;76.29;101907.44;5064390;28;20638;-86
2022/09/01 02:03:23;;;;;;;4.40;2.40;;;;;;;14.17;76.33;101916.84;5064362;28;20032;-86
2022/09/01 02:05:51;;;;;;;3.30;2.20;;;;;;;14.16;76.39;101917.06;5063470;28;20059;-87
2022/09/01 02:08:19;;;;;;;2.63;2.43;;;;;;;14.15;77.25;101915.38;5063309;28;20052;-86
2022/09/01 02:10:47;;;;;;;4.67;2.60;;;;;;;14.07;77.16;101910.16;5062828;28;20127;-86
2022/09/01 02:13:17;;;;;;;4.23;2.60;;;;;;;14.13;77.31;101914.75;5063947;28;20532;-87
2022/09/01 02:15:46;;;;;;;4.27;2.40;;;;;;;14.19;77.00;101913.91;5063471;28;20036;-86
2022/09/01 02:18:23;;;;;;;4.77;2.60;;;;;;;14.14;76.95;101914.56;5063572;28;20027;-87
2022/09/01 02:20:51;;;;;;;3.13;2.57;;;;;;;13.98;77.96;101914.94;5062616;28;20473;-87
2022/09/01 02:23:22;;;;;;;4.33;2.60;;;;;;;13.90;79.00;101918.72;5045923;28;20062;-87
2022/09/01 02:25:52;;;;;;;5.73;2.87;;;;;;;13.88;78.83;101912.63;5063732;28;20131;-87
2022/09/01 02:28:18;;;;;;;4.43;2.43;;;;;;;13.78;78.83;101914.94;5045363;28;20035;-86
2022/09/01 02:30:48;;;;;;;3.37;2.40;;;;;;;13.72;79.23;101910.31;5061881;28;20517;-87
2022/09/01 02:33:17;;;;;;;3.70;2.60;;;;;;;13.78;79.66;101913.03;5045763;28;20400;-87
2022/09/01 02:36:06;;;;;;;4.90;2.77;;;;;;;13.67;79.53;101913.66;5061994;28;20032;-87
2022/09/01 02:38:32;;;;;;;4.93;2.70;;;;;;;13.57;79.98;101903.19;5061403;28;20468;-87
2022/09/01 02:41:01;;;;;;;4.20;2.77;;;;;;;13.59;80.32;101905.69;5063312;28;20082;-86
2022/09/01 02:43:28;;;;;;;4.27;2.50;;;;;;;13.57;79.92;101914.06;5044729;28;20032;-87
2022/09/01 02:45:58;;;;;;;5.17;2.80;;;;;;;13.58;79.37;101904.81;5063175;28;20514;-87
2022/09/01 02:48:31;;;;;;;5.63;2.77;;;;;;;13.57;79.85;101907.75;5063598;28;20491;-87
2022/09/01 02:50:58;;;;;;;6.30;3.00;;;;;;;13.58;79.60;101909.44;5062902;28;20074;-87
2022/09/01 02:53:24;;;;;;;3.57;2.80;;;;;;;13.60;79.63;101902.75;5062877;28;20036;-86
2022/09/01 02:55:50;;;;;;;4.63;2.60;;;;;;;13.67;79.11;101902.78;5062603;28;21450;-87
2022/09/01 02:58:18;;;;;;;5.27;2.80;;;;;;;13.56;79.69;101896.03;5045192;28;20041;-86
2022/09/01 03:00:45;;;;;;;3.33;2.80;;;;;;;13.53;79.60;101896.47;5062461;28;20266;-87
2022/09/01 03:03:12;;;;;;;5.83;2.70;;;;;;;13.51;80.12;101898.53;5063424;28;20039;-87
2022/09/01 03:05:38;;;;;;;3.73;2.80;;;;;;;13.47;79.60;101898.09;5028011;28;20716;-87
2022/09/01 03:08:11;;;;;;;5.80;2.80;;;;;;;13.38;80.00;101893.91;5060207;28;20086;-87
2022/09/01 03:10:40;;;;;;;4.80;2.80;;;;;;;13.41;79.84;101900.81;5061786;28;20117;-87
2022/09/01 03:13:14;;;;;;;3.43;2.70;;;;;;;13.36;80.28;101901.44;5063408;28;20886;-87
2022/09/01 03:15:40;;;;;;;3.03;2.67;;;;;;;13.31;80.11;101893.00;5062597;28;20741;-86
2022/09/01 03:18:08;;;;;;;5.73;2.83;;;;;;;13.32;80.08;101895.50;5062925;28;20040;-87
2022/09/01 03:20:35;;;;;;;3.30;2.73;;;;;;;13.40;79.62;101896.41;5060712;28;20034;-87
2022/09/01 03:23:03;;;;;;;3.53;2.70;;;;;;;13.39;79.38;101892.00;5063540;28;20075;-87
2022/09/01 03:25:28;;;;;;;5.87;3.00;;;;;;;13.36;79.65;101884.28;5062992;28;20397;-86
2022/09/01 03:28:01;;;;;;;5.93;2.93;;;;;;;13.38;78.57;101893.91;5062211;28;20035;-86
2022/09/01 03:30:32;;;;;;;5.43;2.80;;;;;;;13.40;78.85;101893.69;5030742;28;20515;-86
2022/09/01 03:32:59;;;;;;;3.37;2.83;;;;;;;13.40;78.08;101890.97;5062441;28;20032;-86
2022/09/01 03:35:27;;;;;;;6.53;2.80;;;;;;;13.42;77.39;101888.88;5062346;28;20040;-87
2022/09/01 03:37:57;;;;;;;4.30;3.00;;;;;;;13.41;77.27;101888.03;5061829;28;20122;-86
2022/09/01 03:40:26;;;;;;;4.23;2.50;;;;;;;13.46;76.99;101887.41;5061428;28;20379;-87
2022/09/01 03:42:52;;;;;;;3.10;2.73;;;;;;;13.55;76.76;101888.91;5044574;28;20089;-86
2022/09/01 03:45:19;;;;;;;4.70;2.70;;;;;;;13.43;76.82;101882.41;5060986;28;20101;-87
2022/09/01 03:47:45;;;;;;;3.37;2.60;;;;;;;13.47;76.85;101886.38;5062160;28;20044;-87
2022/09/01 03:50:20;;;;;;;5.80;3.00;;;;;;;13.49;76.10;101895.16;5061490;28;20124;-86
2022/09/01 03:52:51;;;;;;;3.80;2.50;;;;;;;13.44;76.49;101893.06;5062313;28;20040;-87
2022/09/01 03:55:22;;;;;;;3.10;2.63;;;;;;;13.45;76.27;101896.63;5061803;28;20040;-87
2022/09/01 03:57:54;;;;;;;4.20;2.60;;;;;;;13.41;76.35;101893.50;5062096;28;20040;-87
2022/09/01 04:00:23;;;;;;;4.67;2.80;;;;;;;13.43;76.12;101885.13;5061113;28;20041;-87
2022/09/01 04:02:50;;;;;;;3.73;2.70;;;;;;;13.40;76.12;101888.25;5061314;28;20041;-87
2022/09/01 04:05:18;;;;;;;3.33;2.70;;;;;;;13.39;75.92;101881.13;5060800;28;20738;-86
2022/09/01 04:07:45;;;;;;;4.20;2.80;;;;;;;13.41;75.88;101887.19;5061752;28;20556;-87
2022/09/01 04:10:11;;;;;;;4.90;2.77;;;;;;;13.39;75.34;101886.56;5061380;28;20411;-87
2022/09/01 04:12:37;;;;;;;6.53;2.60;;;;;;;13.38;75.59;101893.06;5062263;28;20039;-87
2022/09/01 04:15:03;;;;;;;4.40;2.60;;;;;;;13.36;75.29;101887.00;5061256;28;20507;-88
2022/09/01 04:20:14;;;;;;;5.88;2.88;;;;;;;13.29;75.47;101886.94;5061627;28;20110;-87
2022/09/01 04:22:39;;;;;;;4.23;2.83;;;;;;;13.29;75.62;101885.03;5061246;28;20552;-88
2022/09/01 04:25:05;;;;;;;4.77;2.80;;;;;;;13.24;75.58;101883.97;5061705;28;20036;-86
2022/09/01 04:27:30;;;;;;;5.60;2.70;;;;;;;13.22;75.28;101884.19;5030215;28;20039;-85
2022/09/01 04:29:56;;;;;;;4.80;2.87;;;;;;;13.22;75.33;101888.78;5060353;28;20044;-87
2022/09/01 04:32:23;;;;;;;3.17;2.63;;;;;;;13.23;75.39;101890.47;5059277;28;20090;-86
2022/09/01 04:34:49;;;;;;;4.60;2.80;;;;;;;13.23;75.08;101896.75;5061561;28;20390;-86
2022/09/01 04:37:17;;;;;;;4.37;2.80;;;;;;;13.24;75.13;101892.97;5059879;28;20044;-87
2022/09/01 04:39:51;;;;;;;5.07;2.70;;;;;;;13.15;75.22;101889.59;5061726;28;20032;-87
2022/09/01 04:42:19;;;;;;;5.35;2.80;;;;;;;13.08;75.49;101891.47;5046273;28;20032;-87
2022/09/01 04:44:45;;;;;;;3.93;2.60;;;;;;;13.12;75.55;101887.31;5060041;28;20036;-87
2022/09/01 04:47:16;;;;;;;4.43;2.80;;;;;;;13.06;75.31;101879.94;5060123;28;20033;-86
2022/09/01 04:49:44;;;;;;;5.33;2.83;;;;;;;13.06;75.35;101887.28;5043693;28;20093;-86
2022/09/01 04:52:11;;;;;;;5.00;2.80;;;;;;;13.01;75.55;101887.84;5059223;28;20403;-87
2022/09/01 04:54:37;;;;;;;3.83;2.90;;;;;;;13.01;75.43;101882.41;5060712;28;20089;-87
2022/09/01 04:57:05;;;;;;;4.67;2.80;;;;;;;13.07;75.35;101888.94;5045222;28;20078;-87
2022/09/01 04:59:32;;;;;;;5.33;2.67;;;;;;;13.00;75.80;101888.91;5061283;28;20115;-87
2022/09/01 05:02:00;;;;;;;4.37;2.80;;;;;;;13.01;75.42;101898.75;5060430;28;20032;-87
2022/09/01 05:04:32;;;;;;;3.37;2.70;;;;;;;12.94;75.33;101885.09;5060930;28;20076;-88
2022/09/01 05:06:59;;;;;;;5.00;2.80;;;;;;;13.10;75.13;101892.09;5060761;28;20036;-87
2022/09/01 05:09:29;;;;;;;6.43;3.00;;;;;;;13.05;75.08;101891.03;5060322;28;20037;-87
2022/09/01 05:11:56;;;;;;;4.80;2.80;;;;;;;12.99;75.09;101885.34;5059156;28;20162;-87
2022/09/01 05:14:23;;;;;;;6.57;3.17;;;;;;;12.99;75.30;101895.41;5061037;28;20119;-87
2022/09/01 05:16:49;;;;;;;7.57;3.00;;;;;;;12.98;75.55;101897.25;5058795;28;20032;-87
2022/09/01 05:19:16;;;;;;;5.60;2.83;;;;;;;13.00;75.24;101897.91;5059859;28;20131;-87
2022/09/01 05:21:44;;;;;;;5.40;3.03;;;;;;;12.99;75.33;101900.84;5059716;28;20048;-87
2022/09/01 05:24:13;;;;;;;4.70;2.80;;;;;;;13.04;75.30;101903.81;5043479;28;20044;-87
2022/09/01 05:26:41;;;;;;;5.17;2.70;;;;;;;13.07;75.28;101903.38;5060006;28;20043;-87
2022/09/01 05:29:12;;;;;;;5.07;3.00;;;;;;;13.06;75.30;101896.25;5041929;28;20032;-87
2022/09/01 05:31:39;;;;;;;4.80;2.90;;;;;;;13.04;75.16;101901.09;5043024;28;20052;-87
2022/09/01 05:34:06;;;;;;;6.03;3.07;;;;;;;13.08;75.16;101901.50;5061086;28;20028;-87
2022/09/01 05:36:32;;;;;;;3.70;2.87;;;;;;;13.13;74.83;101899.84;5058344;28;20043;-87
2022/09/01 05:38:59;;;;;;;5.60;2.80;;;;;;;13.11;75.08;101910.09;5060134;28;20131;-87
2022/09/01 05:41:25;;;;;;;3.70;2.70;;;;;;;13.18;74.90;101904.69;5060671;28;20046;-87
2022/09/01 05:43:51;;;;;;;4.43;3.00;;;;;;;13.24;74.10;101905.75;5043354;28;20041;-86
2022/09/01 05:46:28;;;;;;;4.83;2.70;;;;;;;13.29;74.58;101904.09;5045441;28;20471;-87
2022/09/01 05:48:54;;;;;;;4.70;2.40;;;;;;;13.47;74.59;101910.88;5064078;28;20032;-85
2022/09/01 05:51:24;;;;;;;9.60;2.90;;;;;;;13.42;74.33;101906.06;5063026;28;20044;-86
2022/09/01 05:53:53;;;;;;;5.93;2.83;;;;;;;13.55;73.18;101916.13;5049398;28;20033;-87
2022/09/01 05:56:19;;;;;;;4.57;2.50;;;;;;;13.67;72.91;101919.09;5062930;28;20032;-87
2022/09/01 05:58:47;;;;;;;3.40;2.60;;;;;;;13.69;72.32;101914.28;5062729;28;20037;-86
2022/09/01 06:01:39;;;;;;;5.47;2.70;;;;;;;13.83;71.52;101915.13;5045039;28;20269;-87
2022/09/01 06:04:07;;;;;;;5.80;2.70;;;;;;;14.00;71.09;101919.13;5060660;28;20055;-88
2022/09/01 06:06:44;;;;;;;3.07;2.50;;;;;;;14.08;71.08;101923.56;5063872;28;20036;-87
2022/09/01 06:09:12;;;;;;;4.40;2.63;;;;;;;14.23;70.23;101912.44;5063828;28;20027;-88
2022/09/01 06:11:38;;;;;;;3.93;2.40;;;;;;;14.39;70.03;101921.22;5063302;28;20040;-88
2022/09/01 06:14:04;;;;;;;5.00;2.57;;;;;;;14.50;69.68;101917.88;5064113;28;20369;-87
2022/09/01 06:16:30;;;;;;;5.30;2.37;;;;;;;14.65;69.06;101921.25;5063401;28;20043;-87
2022/09/01 06:18:58;;;;;;;6.00;2.40;;;;;;;14.78;68.91;101925.00;5031859;28;20036;-87
2022/09/01 06:21:24;;;;;;;4.23;2.50;;;;;;;14.88;68.71;101914.47;5062444;28;20487;-88
2022/09/01 06:23:52;;;;;;;4.37;2.33;;;;;;;15.06;68.28;101934.78;5045462;28;20047;-88
2022/09/01 06:26:22;;;;;;;6.30;2.40;;;;;;;15.14;66.97;101932.66;5063846;28;20040;-89
2022/09/01 06:28:53;;;;;;;4.47;2.20;;;;;;;15.24;65.91;101931.34;5063949;28;20044;-86
2022/09/01 06:31:22;;;;;;;4.23;2.33;;;;;;;15.31;66.15;101927.56;5062730;28;20040;-88
2022/09/01 06:33:50;;;;;;;4.77;2.40;;;;;;;15.34;64.39;101918.09;5045426;28;20125;-82
2022/09/01 06:36:16;;;;;;;4.47;2.30;;;;;;;15.41;65.09;101924.34;5061442;28;20032;-89
2022/09/01 06:38:41;;;;;;;5.80;2.50;;;;;;;15.41;65.01;101928.94;5063105;28;20127;-86
2022/09/01 06:41:11;;;;;;;5.70;2.30;;;;;;;15.47;64.62;101925.38;5063539;28;20036;-88
2022/09/01 06:43:40;;;;;;;6.47;2.77;;;;;;;15.44;64.51;101931.28;5062450;28;20396;-87
2022/09/01 06:46:08;;;;;;;8.23;2.60;;;;;;;15.46;64.31;101934.59;5063154;28;20040;-88
2022/09/01 06:48:45;;;;;;;8.73;2.50;;;;;;;15.49;63.82;101925.97;5062565;28;20037;-88
2022/09/01 06:51:13;;;;;;;7.40;2.60;;;;;;;15.60;64.50;101935.38;5062855;28;20499;-88
2022/09/01 06:53:39;;;;;;;7.60;2.80;;;;;;;15.70;63.84;101936.56;5062211;28;20865;-88
2022/09/01 06:56:04;;;;;;;5.40;2.67;;;;;;;15.85;64.88;101939.03;5062606;28;20044;-87
2022/09/01 06:58:31;;;;;;;7.30;2.60;;;;;;;15.94;63.76;101939.59;5062830;28;20036;-85
2022/09/01 07:00:56;;;;;;;4.50;2.43;;;;;;;16.08;63.65;101940.34;5063363;28;20036;-87
2022/09/01 07:03:23;;;;;;;6.23;2.77;;;;;;;16.13;62.74;101935.06;5063070;28;20044;-84
2022/09/01 07:05:50;;;;;;;5.90;2.50;;;;;;;16.25;62.53;101939.78;5061380;28;20032;-87
2022/09/01 07:08:20;;;;;;;10.30;2.40;;;;;;;16.31;61.96;101936.19;5062771;28;20178;-86
2022/09/01 07:10:49;;;;;;;8.03;2.40;;;;;;;16.41;61.88;101938.41;5062211;28;20045;-86
2022/09/01 07:13:24;;;;;;;3.10;2.47;;;;;;;16.56;61.83;101952.56;5062196;28;20488;-87
2022/09/01 07:15:52;;;;;;;6.23;2.80;;;;;;;16.71;62.79;101949.47;5063254;28;20036;-85
2022/09/01 07:18:24;;;;;;;5.03;2.50;;;;;;;16.82;61.70;101940.53;5062450;28;20040;-87
2022/09/01 07:20:51;;;;;;;7.40;2.60;;;;;;;17.01;62.20;101944.13;5062766;28;20039;-86
2022/09/01 07:23:17;;;;;;;9.17;2.33;;;;;;;17.07;60.82;101941.53;5061465;28;20052;-85
2022/09/01 07:25:46;;;;;;;5.83;2.60;;;;;;;17.12;60.13;101947.16;5062748;28;20126;-85
2022/09/01 07:28:16;;;;;;;4.80;2.40;;;;;;;17.23;59.92;101946.41;5062114;28;20090;-85
2022/09/01 07:30:52;;;;;;;3.80;2.40;;;;;;;17.42;60.33;101949.09;5062152;28;20033;-87
2022/09/01 07:33:22;;;;;;;7.67;2.50;;;;;;;17.56;59.89;101953.34;5061979;28;20041;-87
2022/09/01 07:35:48;;;;;;;5.33;2.50;;;;;;;17.70;59.89;101941.13;5062492;28;20143;-87
2022/09/01 07:38:14;;;;;;;7.50;2.80;;;;;;;17.81;59.60;101939.47;5047294;28;20056;-84
2022/09/01 07:40:41;;;;;;;4.60;2.40;;;;;;;17.98;59.65;101941.63;5063033;28;20041;-86
2022/09/01 07:43:14;;;;;;;6.57;2.73;;;;;;;18.21;59.10;101947.13;5061250;28;20291;-86
2022/09/01 07:45:46;;;;;;;5.47;2.50;;;;;;;18.31;58.33;101943.78;5062330;28;20040;-88
2022/09/01 07:48:13;;;;;;;7.13;2.70;;;;;;;18.32;58.03;101947.41;5061656;28;20032;-86
2022/09/01 07:50:46;;;;;;;3.27;2.70;;;;;;;18.52;57.74;101952.50;5061453;28;20819;-86
2022/09/01 07:53:14;;;;;;;4.80;2.50;;;;;;;18.63;56.84;101948.09;5060592;28;20119;-86
2022/09/01 07:55:43;;;;;;;5.90;2.50;;;;;;;18.67;56.96;101941.06;5060408;28;20403;-87
2022/09/01 07:58:08;;;;;;;4.23;2.33;;;;;;;18.64;56.47;101942.38;5047740;28;20093;-87
2022/09/01 08:00:34;;;;;;;5.90;2.40;;;;;;;18.78;56.60;101945.72;5062384;28;20037;-87
2022/09/01 08:03:00;;;;;;;2.90;2.40;;;;;;;18.98;55.93;101937.09;5046836;28;20032;-87
2022/09/01 08:05:25;;;;;;;3.38;2.50;;;;;;;19.05;55.39;101953.44;5030656;28;20032;-88
2022/09/01 08:07:53;;;;;;;5.90;2.30;;;;;;;19.24;55.03;101954.13;5061388;28;20074;-87
2022/09/01 08:10:18;;;;;;;6.45;2.40;;;;;;;19.54;55.46;101956.69;5061630;28;20112;-89
2022/09/01 08:12:44;;;;;;;6.60;2.70;;;;;;;19.70;53.08;101955.03;5060200;28;20054;-88
2022/09/01 08:15:11;;;;;;;3.60;2.40;;;;;;;19.87;53.13;101951.53;5061722;28;20509;-85
2022/09/01 08:17:37;;;;;;;5.68;2.40;;;;;;;20.04;53.22;101957.03;5061800;28;20032;-87
2022/09/01 08:20:05;;;;;;;5.53;2.28;;;;;;;20.29;53.08;101964.06;5061797;28;20042;-84
2022/09/01 08:22:31;;;;;;;3.05;2.40;;;;;;;20.32;52.70;101953.38;5060813;28;20551;-91
2022/09/01 08:24:56;;;;;;;5.13;2.20;;;;;;;20.74;52.34;101961.22;5061697;28;20040;-87
2022/09/01 08:27:22;;;;;;;3.95;2.30;;;;;;;20.91;51.72;101960.34;5059655;28;20044;-87
2022/09/01 08:29:47;;;;;;;2.47;2.20;;;;;;;20.99;51.10;101959.06;5060340;28;20044;-89
2022/09/01 08:32:13;;;;;;;7.15;2.40;;;;;;;21.23;51.13;101956.91;5061269;28;20028;-88
2022/09/01 08:34:38;;;;;;;5.22;2.25;;;;;;;21.33;50.72;101964.47;5059328;28;20055;-89
2022/09/01 08:37:05;;;;;;;4.35;2.40;;;;;;;20.90;49.94;101942.13;5061118;28;20615;-87
2022/09/01 08:39:31;;;;;;;6.75;2.40;;;;;;;20.81;50.55;101949.19;5060120;28;20055;-89
2022/09/01 08:42:16;;;;;;;5.32;2.40;;;;;;;20.93;51.28;101955.44;5061906;28;20028;-88
2022/09/01 08:44:51;;;;;;;3.13;2.40;;;;;;;21.32;49.46;101944.31;5060121;28;20032;-90
2022/09/01 08:47:18;;;;;;;4.93;2.40;;;;;;;21.35;48.89;101954.84;5062197;28;20036;-87
2022/09/01 08:49:45;;;;;;;3.38;2.20;;;;;;;21.35;49.45;101956.75;5062814;28;20036;-91
2022/09/01 08:52:11;;;;;;;4.97;2.30;;;;;;;21.66;48.90;101948.88;5062135;28;20089;-88
2022/09/01 08:54:39;;;;;;;6.57;2.30;;;;;;;22.00;48.48;101957.72;5062630;28;20032;-92
2022/09/01 08:57:09;;;;;;;6.45;2.35;;;;;;;22.25;47.18;101959.91;5060051;28;20036;-89
2022/09/01 08:59:35;;;;;;;4.22;2.15;;;;;;;22.58;46.15;101965.41;5060757;28;20051;-89
2022/09/01 09:02:24;;;;;;;7.13;2.15;;;;;;;23.27;44.92;101966.38;5042762;28;20052;-88
2022/09/01 09:05:00;;;;;;;2.95;2.00;;;;;;;23.48;44.77;101967.25;5048654;28;20040;-89
2022/09/01 09:07:38;;;;;;;3.60;2.20;;;;;;;23.33;44.20;101958.91;5062050;28;20119;-92
2022/09/01 09:10:25;;;;;;;5.50;2.30;;;;;;;23.23;45.40;101954.19;5061341;28;20075;-90
2022/09/01 09:12:51;;;;;;;6.63;2.10;;;;;;;23.74;43.89;101943.25;5041760;28;21213;-90
2022/09/01 09:15:55;;;;;;;4.57;2.13;;;;;;;24.39;44.99;101956.56;5059399;28;20254;-87
2022/09/01 09:18:28;;;;;;;2.10;1.90;;;;;;;24.55;41.56;101953.81;5037565;28;20058;-87
2022/09/01 09:20:54;;;;;;;4.25;2.00;;;;;;;24.51;40.99;101955.47;5042153;28;20040;-86
2022/09/01 09:23:38;;;;;;;3.33;2.10;;;;;;;24.50;40.87;101948.25;5052647;28;20045;-88
2022/09/01 09:26:03;;;;;;;4.47;2.03;;;;;;;24.23;41.70;101944.66;5065594;28;20036;-87
2022/09/01 09:28:29;;;;;;;3.92;2.10;;;;;;;23.62;41.67;101936.31;5064166;28;20076;-86
2022/09/01 09:31:25;;;;;;;3.22;2.28;;;;;;;24.27;41.49;101936.66;5064517;28;20067;-89
2022/09/01 09:33:51;;;;;;;3.17;1.65;;;;;;;24.44;41.19;101945.50;5064206;28;20103;-87
2022/09/01 09:36:20;;;;;;;2.80;1.50;;;;;;;24.81;40.60;101937.16;5064238;28;20070;-87
2022/09/01 09:38:46;;;;;;;2.40;1.50;;;;;;;25.11;40.06;101934.22;5064563;28;20422;-88
2022/09/01 09:41:16;;;;;;;2.58;1.90;;;;;;;25.28;38.58;101927.50;5064395;28;20060;-87
2022/09/01 09:43:45;;;;;;;2.63;1.55;;;;;;;25.27;38.07;101932.22;5064100;28;20122;-90
2022/09/01 09:46:35;;;;;;;4.13;1.90;;;;;;;25.73;38.13;101925.59;5065245;28;20036;-89
2022/09/01 09:49:19;;;;;;;4.07;1.80;;;;;;;25.58;38.46;101922.91;5064197;28;20036;-87
2022/09/01 09:51:48;;;;;;;3.70;1.58;;;;;;;24.98;37.57;101920.16;5065162;28;20043;-88
2022/09/01 09:54:25;;;;;;;4.53;1.55;;;;;;;25.43;36.70;101918.28;5063796;28;20032;-93
2022/09/01 09:57:15;;;;;;;3.88;1.50;;;;;;;25.06;38.29;101908.47;5065687;28;20127;-90
2022/09/01 09:59:43;;;;;;;4.45;1.50;;;;;;;25.32;37.74;101911.94;5064628;28;20048;-86
2022/09/01 10:02:21;;;;;;;2.13;1.40;;;;;;;25.76;37.91;101910.31;5064014;28;20032;-89
2022/09/01 10:04:46;;;;;;;2.95;1.30;;;;;;;25.77;34.35;101904.47;5063438;28;20172;-89
2022/09/01 10:07:29;;;;;;;7.07;1.55;;;;;;;26.16;34.59;101915.84;5064225;28;20692;-89
2022/09/01 10:09:57;;;;;;;2.08;1.38;;;;;;;26.11;33.03;101916.69;5063988;28;20094;-86
2022/09/01 10:12:24;;;;;;;3.58;1.63;;;;;;;26.16;33.78;101905.53;5063733;28;20385;-87
2022/09/01 10:14:58;;;;;;;3.83;1.40;;;;;;;26.35;33.36;101913.97;5063896;28;20040;-87
2022/09/01 10:17:33;;;;;;;1.23;1.02;;;;;;;26.26;33.40;101918.50;5064112;28;20319;-86
2022/09/01 10:20:11;;;;;;;2.00;1.42;;;;;;;26.42;32.31;101913.63;5063728;28;20130;-88
2022/09/01 10:22:38;;;;;;;4.25;1.25;;;;;;;26.66;32.56;101905.31;5061655;28;20131;-86
2022/09/01 10:25:06;;;;;;;3.22;1.08;;;;;;;26.62;31.58;101905.06;5062152;28;20036;-87
2022/09/01 10:27:39;;;;;;;2.10;1.30;;;;;;;26.80;31.49;101905.44;5064101;28;20043;-87
2022/09/01 10:30:14;;;;;;;2.03;1.33;;;;;;;26.68;31.12;101911.38;5062736;28;20411;-87
2022/09/01 10:32:44;;;;;;;6.05;1.50;;;;;;;26.47;31.79;101899.69;5044498;28;20864;-87
2022/09/01 10:35:33;;;;;;;2.35;1.30;;;;;;;26.53;32.15;101892.13;5062304;28;20435;-87
2022/09/01 10:38:05;;;;;;;4.68;1.40;;;;;;;26.17;31.19;101898.06;5063607;28;20043;-88
2022/09/01 10:40:47;;;;;;;2.97;1.40;;;;;;;26.28;32.09;101896.84;5063002;28;20107;-88
2022/09/01 10:43:24;;;;;;;4.47;1.45;;;;;;;26.55;32.65;101896.25;5063082;28;20037;-90
2022/09/01 10:45:50;;;;;;;4.95;1.40;;;;;;;26.57;31.43;101893.19;5062391;28;20060;-88
2022/09/01 10:48:18;;;;;;;1.73;1.30;;;;;;;26.66;31.21;101885.03;5063096;28;20468;-85
2022/09/01 10:50:45;;;;;;;5.18;1.20;;;;;;;26.82;31.18;101882.91;5062745;28;20036;-90
2022/09/01 10:53:34;;;;;;;4.15;1.38;;;;;;;26.82;31.88;101877.34;5045511;28;20051;-88
2022/09/01 10:56:36;;;;;;;2.85;1.33;;;;;;;26.92;32.85;101877.22;5062797;28;20051;-89
2022/09/01 10:59:20;;;;;;;2.78;1.20;;;;;;;27.16;30.52;101877.19;5062740;28;20060;-91
2022/09/01 11:01:45;;;;;;;;;;;;;;;27.81;31.71;101875.63;5045910;28;20127;-89
2022/09/01 11:04:12;;;;;;;2.22;1.23;;;;;;;27.35;29.76;101885.53;5061680;28;19924;-89
2022/09/01 11:06:40;;;;;;;2.90;1.30;;;;;;;27.01;30.00;101875.44;5063408;28;20032;-90
2022/09/01 11:09:18;;;;;;;1.00;1.00;;;;;;;26.89;30.05;101869.50;5061835;28;20046;-88
2022/09/01 11:12:05;;;;;;;2.28;1.25;;;;;;;27.11;29.97;101875.28;5062505;28;20044;-90
2022/09/01 11:14:34;;;;;;;2.00;1.10;;;;;;;27.19;28.53;101882.13;5062530;28;20047;-87
2022/09/01 11:17:18;;;;;;;3.35;1.30;;;;;;;27.35;29.19;101882.75;5062034;28;20032;-89
2022/09/01 11:19:45;;;;;;;1.80;1.20;;;;;;;26.84;29.24;101867.59;5062249;28;20037;-86
2022/09/01 11:22:57;;;;;;;4.78;1.40;;;;;;;27.09;29.27;101888.69;5062033;28;20063;-88
2022/09/01 11:25:32;;;;;;;4.20;1.38;;;;;;;26.98;28.54;101867.69;5061417;28;20497;-86
2022/09/01 11:28:00;;;;;;;2.00;1.23;;;;;;;27.01;28.17;101857.91;5061987;28;20036;-88
2022/09/01 11:30:54;;;;;;;5.00;1.33;;;;;;;27.11;28.03;101872.50;5062326;28;20106;-83
2022/09/01 11:33:26;;;;;;;1.33;1.10;;;;;;;26.82;27.63;101869.00;5062808;28;20658;-87
2022/09/01 11:36:01;;;;;;;4.47;1.30;;;;;;;26.94;27.97;101870.25;5062132;28;20482;-87
2022/09/01 11:38:31;;;;;;;2.47;1.20;;;;;;;26.76;27.52;101862.69;5062330;28;20036;-87
2022/09/01 11:40:57;;;;;;;1.77;1.10;;;;;;;26.73;27.63;101858.53;5041952;28;20472;-85
2022/09/01 11:43:25;;;;;;;1.38;1.10;;;;;;;26.62;28.05;101851.44;5043644;28;20079;-88